Time;durP1;ratioP1;P1;durP2;ratioP2;P2;SDS_P1;SDS_P2;PMS_P1;PMS_P2;Temp;Humidity;BMP_temperature;BMP_pressure;BME280_temperature;BME280_humidity;BME280_pressure;Samples;Min_cycle;Max_cycle;Signal;HPM_P1;HPM_P2
2023/12/13 00:00:10;;;;;;;12.17;5.53;;;;;;;7.71;66.48;98979.63;5097476;28;20223;-85
2023/12/13 00:02:37;;;;;;;12.07;4.90;;;;;;;7.59;66.51;98981.91;5115223;28;20237;-85
2023/12/13 00:05:02;;;;;;;9.30;4.87;;;;;;;7.51;66.95;98976.16;5115195;28;20184;-85
2023/12/13 00:07:29;;;;;;;8.97;4.37;;;;;;;7.58;67.30;98980.19;5115480;28;20176;-85
2023/12/13 00:09:56;;;;;;;9.70;4.70;;;;;;;7.60;67.01;98974.00;5115384;28;20287;-85
2023/12/13 00:12:21;;;;;;;8.97;4.43;;;;;;;7.61;66.69;98975.72;5115005;28;20332;-85
2023/12/13 00:14:47;;;;;;;9.13;4.13;;;;;;;7.52;66.42;98970.06;5115570;28;20646;-85
2023/12/13 00:17:14;;;;;;;9.80;4.63;;;;;;;7.52;66.86;98970.88;5115092;28;20188;-85
2023/12/13 00:19:41;;;;;;;11.90;5.20;;;;;;;7.52;66.84;98964.84;5097063;28;20558;-85
2023/12/13 00:22:08;;;;;;;8.83;4.83;;;;;;;7.52;66.71;98960.44;5097198;28;20188;-85
2023/12/13 00:24:33;;;;;;;19.40;5.50;;;;;;;7.48;67.68;98960.66;5113807;28;20231;-85
2023/12/13 00:27:00;;;;;;;9.40;4.60;;;;;;;7.52;67.58;98950.00;5096953;28;20545;-85
2023/12/13 00:29:27;;;;;;;10.73;5.33;;;;;;;7.38;67.48;98941.97;5114268;28;20196;-85
2023/12/13 00:31:53;;;;;;;11.17;4.47;;;;;;;7.39;67.84;98943.63;5114849;28;20172;-85
2023/12/13 00:34:20;;;;;;;12.23;4.73;;;;;;;7.44;68.33;98936.50;5114185;28;20317;-85
2023/12/13 00:36:46;;;;;;;10.60;4.93;;;;;;;7.43;68.63;98938.25;5115258;28;20198;-85
2023/12/13 00:39:13;;;;;;;10.50;4.23;;;;;;;7.37;69.08;98935.88;5097887;28;20184;-85
2023/12/13 00:41:39;;;;;;;13.27;6.00;;;;;;;7.37;69.14;98935.03;5114310;28;20255;-85
2023/12/13 00:44:05;;;;;;;9.33;4.40;;;;;;;7.37;68.53;98935.03;5114597;28;20180;-85
2023/12/13 00:46:30;;;;;;;7.23;3.70;;;;;;;7.34;69.39;98929.94;5114569;28;20249;-85
2023/12/13 00:48:57;;;;;;;9.73;3.97;;;;;;;7.40;69.36;98919.28;5114717;28;20264;-85
2023/12/13 00:51:25;;;;;;;10.83;5.03;;;;;;;7.46;68.89;98916.41;5115006;28;20252;-84
2023/12/13 00:53:52;;;;;;;10.83;4.00;;;;;;;7.52;69.47;98920.50;5102504;28;20238;-85
2023/12/13 00:56:19;;;;;;;12.53;3.93;;;;;;;7.62;69.01;98925.25;5076129;28;20264;-85
2023/12/13 00:58:47;;;;;;;10.47;4.70;;;;;;;7.64;68.53;98926.03;5080258;28;20191;-84
2023/12/13 01:01:14;;;;;;;10.43;4.87;;;;;;;7.65;68.28;98927.69;5096277;28;20271;-85
2023/12/13 01:03:39;;;;;;;8.13;4.63;;;;;;;7.70;68.40;98928.38;5114178;28;20207;-85
2023/12/13 01:06:09;;;;;;;10.90;4.00;;;;;;;7.67;68.33;98928.50;5096795;28;20683;-84
2023/12/13 01:08:37;;;;;;;10.93;5.13;;;;;;;7.69;67.91;98921.44;5096643;28;20609;-85
2023/12/13 01:11:06;;;;;;;12.67;5.07;;;;;;;7.77;68.05;98928.94;5096084;28;20192;-85
2023/12/13 01:13:33;;;;;;;11.83;4.33;;;;;;;7.75;67.50;98934.22;5095633;28;20204;-84
2023/12/13 01:15:58;;;;;;;11.23;5.43;;;;;;;7.61;67.66;98946.16;5095694;28;20195;-84
2023/12/13 01:18:25;;;;;;;9.63;4.77;;;;;;;7.55;67.09;98949.06;5113908;28;20188;-84
2023/12/13 01:20:50;;;;;;;16.53;5.73;;;;;;;7.52;67.05;98960.44;5095757;28;20169;-84
2023/12/13 01:23:17;;;;;;;15.00;6.13;;;;;;;7.30;67.10;98947.50;5114363;28;20175;-84
2023/12/13 01:25:43;;;;;;;10.80;5.97;;;;;;;7.10;67.74;98917.97;5114169;28;20180;-84
2023/12/13 01:28:10;;;;;;;15.63;6.50;;;;;;;7.06;67.50;98899.00;5095839;28;20616;-84
2023/12/13 01:30:36;;;;;;;20.53;7.83;;;;;;;7.01;68.04;98897.50;5113278;28;20278;-85
2023/12/13 01:33:02;;;;;;;14.67;8.00;;;;;;;7.00;68.84;98898.41;5095930;28;20202;-85
2023/12/13 01:35:28;;;;;;;23.23;9.37;;;;;;;7.07;68.49;98885.09;5113665;28;20646;-84
2023/12/13 01:37:54;;;;;;;16.87;8.10;;;;;;;7.07;68.12;98879.00;5113646;28;20176;-84
2023/12/13 01:40:19;;;;;;;27.33;12.13;;;;;;;7.07;68.41;98892.91;5113310;28;20191;-85
2023/12/13 01:42:45;;;;;;;27.53;11.57;;;;;;;7.13;67.96;98899.59;5095789;28;20169;-85
2023/12/13 01:45:12;;;;;;;16.57;7.57;;;;;;;7.19;68.27;98900.19;5112346;28;20213;-85
2023/12/13 01:47:38;;;;;;;20.27;9.10;;;;;;;7.24;67.32;98887.81;5094572;28;20183;-84
2023/12/13 01:50:05;;;;;;;17.37;8.77;;;;;;;7.20;67.48;98891.47;5113683;28;20722;-85
2023/12/13 01:52:32;;;;;;;19.97;10.07;;;;;;;7.15;67.28;98898.63;5095460;28;20190;-85
2023/12/13 01:54:59;;;;;;;23.40;10.00;;;;;;;7.11;66.75;98897.06;5113519;28;20180;-84
2023/12/13 01:57:26;;;;;;;21.40;9.43;;;;;;;7.06;66.03;98893.78;5113266;28;20695;-85
2023/12/13 01:59:52;;;;;;;21.37;8.83;;;;;;;7.11;66.38;98901.41;5095258;28;20182;-85
2023/12/13 02:02:19;;;;;;;21.63;9.53;;;;;;;7.10;66.03;98895.34;5095476;28;20175;-85
2023/12/13 02:04:47;;;;;;;21.43;9.60;;;;;;;7.13;66.11;98894.38;5095409;28;20614;-85
2023/12/13 02:07:14;;;;;;;21.07;10.03;;;;;;;7.17;66.04;98903.78;5114191;28;20183;-84
2023/12/13 02:09:41;;;;;;;23.83;10.23;;;;;;;7.15;66.22;98897.78;5095282;28;20215;-85
2023/12/13 02:12:07;;;;;;;26.77;12.27;;;;;;;7.14;66.00;98896.06;5112873;28;20278;-85
2023/12/13 02:14:33;;;;;;;23.13;10.90;;;;;;;7.01;66.24;98887.09;5113554;28;20262;-85
2023/12/13 02:16:59;;;;;;;27.80;11.90;;;;;;;6.76;66.28;98869.88;5113313;28;20263;-85
2023/12/13 02:19:26;;;;;;;29.13;12.50;;;;;;;6.64;66.89;98872.13;5095360;28;20607;-84
2023/12/13 02:21:53;;;;;;;35.30;13.83;;;;;;;6.50;66.89;98877.91;5113214;28;20176;-84
2023/12/13 02:24:23;;;;;;;42.03;16.40;;;;;;;6.48;67.52;98865.84;5112987;28;20183;-84
2023/12/13 02:26:51;;;;;;;34.97;15.43;;;;;;;6.57;67.40;98862.88;5113495;28;20191;-84
2023/12/13 02:29:17;;;;;;;29.47;15.17;;;;;;;6.57;67.61;98849.88;5112978;28;20278;-84
2023/12/13 02:31:44;;;;;;;33.23;14.23;;;;;;;6.52;67.98;98844.84;5095566;28;20597;-85
2023/12/13 02:34:11;;;;;;;31.87;16.40;;;;;;;6.54;68.19;98831.75;5095222;28;20175;-84
2023/12/13 02:36:38;;;;;;;41.93;17.83;;;;;;;6.65;67.88;98837.38;5113132;28;20188;-85
2023/12/13 02:39:07;;;;;;;28.67;14.17;;;;;;;6.67;68.37;98828.59;5095415;28;20252;-85
2023/12/13 02:41:32;;;;;;;36.03;16.33;;;;;;;6.72;68.29;98823.19;5113090;28;20178;-85
2023/12/13 02:44:00;;;;;;;29.77;14.77;;;;;;;6.74;67.97;98822.22;5113575;28;20262;-85
2023/12/13 02:46:28;;;;;;;32.10;14.10;;;;;;;6.73;68.44;98819.69;5113279;28;20184;-85
2023/12/13 02:48:57;;;;;;;45.90;15.07;;;;;;;6.76;68.21;98829.97;5112892;28;20191;-85
2023/12/13 02:51:24;;;;;;;33.13;14.67;;;;;;;6.76;67.62;98828.19;5095252;28;20287;-85
2023/12/13 02:53:51;;;;;;;31.20;15.43;;;;;;;6.81;68.00;98839.25;5112993;28;20183;-85
2023/12/13 02:56:17;;;;;;;32.53;13.13;;;;;;;6.90;67.08;98835.44;5112922;28;20190;-85
2023/12/13 02:58:44;;;;;;;27.47;12.23;;;;;;;6.92;67.21;98835.38;5115303;28;20355;-85
2023/12/13 03:01:11;;;;;;;30.57;14.33;;;;;;;6.93;67.16;98842.25;5116831;28;20171;-85
2023/12/13 03:03:36;;;;;;;25.37;12.37;;;;;;;6.95;66.94;98840.44;5116473;28;20188;-85
2023/12/13 03:06:03;;;;;;;33.87;13.77;;;;;;;6.96;66.96;98844.75;5098549;28;20330;-85
2023/12/13 03:08:28;;;;;;;28.97;13.70;;;;;;;6.95;67.05;98836.06;5098159;28;20183;-85
2023/12/13 03:10:55;;;;;;;28.03;12.07;;;;;;;6.96;67.65;98836.94;5099185;28;20222;-85
2023/12/13 03:13:21;;;;;;;25.10;13.13;;;;;;;6.87;67.20;98824.28;5116157;28;20180;-85
2023/12/13 03:15:47;;;;;;;26.87;13.13;;;;;;;6.95;67.05;98824.81;5116546;28;20171;-85
2023/12/13 03:18:13;;;;;;;24.60;11.67;;;;;;;6.96;67.45;98823.91;5115967;28;20190;-85
2023/12/13 03:20:40;;;;;;;25.10;10.80;;;;;;;6.95;67.90;98832.63;5098215;28;20266;-85
2023/12/13 03:23:08;;;;;;;23.57;10.23;;;;;;;7.02;67.05;98844.50;5098233;28;20198;-84
2023/12/13 03:25:35;;;;;;;18.60;8.97;;;;;;;6.91;67.09;98844.09;5098082;28;20556;-84
2023/12/13 03:28:00;;;;;;;16.07;7.90;;;;;;;6.70;68.93;98827.63;5116015;28;20256;-85
2023/12/13 03:30:27;;;;;;;15.23;8.40;;;;;;;6.71;68.75;98830.16;5098012;28;20199;-85
2023/12/13 03:32:54;;;;;;;13.90;7.87;;;;;;;6.82;68.59;98850.53;5115853;28;20207;-85
2023/12/13 03:35:21;;;;;;;21.37;6.90;;;;;;;6.88;68.76;98852.88;5116013;28;20189;-85
2023/12/13 03:37:47;;;;;;;15.70;7.70;;;;;;;6.91;69.14;98837.13;5115674;28;20258;-85
2023/12/13 03:40:15;;;;;;;13.33;6.33;;;;;;;6.92;69.33;98837.97;5098071;28;20177;-85
2023/12/13 03:42:40;;;;;;;12.57;6.67;;;;;;;6.82;69.67;98833.16;5115683;28;20172;-84
2023/12/13 03:45:07;;;;;;;14.73;7.17;;;;;;;6.81;69.73;98825.41;5097480;28;20180;-84
2023/12/13 03:47:34;;;;;;;15.40;6.57;;;;;;;6.75;70.02;98813.50;5097617;28;20191;-85
2023/12/13 03:50:01;;;;;;;13.27;5.63;;;;;;;6.80;69.77;98819.34;5097634;28;20568;-85
2023/12/13 03:52:26;;;;;;;11.30;5.57;;;;;;;6.82;69.42;98838.34;5115531;28;20714;-85
2023/12/13 03:54:52;;;;;;;14.43;6.30;;;;;;;6.87;69.65;98845.13;5115531;28;20180;-85
2023/12/13 03:57:17;;;;;;;12.30;6.00;;;;;;;6.94;68.95;98851.78;5097789;28;20168;-85
2023/12/13 03:59:42;;;;;;;16.03;5.30;;;;;;;6.96;68.65;98842.13;5114459;28;20190;-85
2023/12/13 04:02:08;;;;;;;11.30;5.87;;;;;;;6.78;69.47;98830.75;5115420;28;20245;-85
2023/12/13 04:04:33;;;;;;;10.83;4.80;;;;;;;6.58;70.87;98823.75;5097475;28;20219;-84
2023/12/13 04:06:59;;;;;;;10.87;5.07;;;;;;;6.32;73.33;98816.16;5115376;28;20194;-84
2023/12/13 04:09:25;;;;;;;12.27;5.00;;;;;;;6.31;74.73;98804.06;5096186;28;20684;-84
2023/12/13 04:11:52;;;;;;;13.47;6.57;;;;;;;6.11;75.95;98806.63;5097298;28;20190;-83
2023/12/13 04:14:19;;;;;;;14.00;6.17;;;;;;;6.04;77.08;98805.16;5114936;28;20661;-84
2023/12/13 04:16:45;;;;;;;11.40;6.47;;;;;;;6.21;76.75;98813.13;5114884;28;20175;-84
2023/12/13 04:19:13;;;;;;;12.93;6.37;;;;;;;6.44;75.70;98839.09;5115075;28;20584;-84
2023/12/13 04:21:39;;;;;;;13.73;7.07;;;;;;;6.51;74.17;98863.13;5114817;28;20185;-84
2023/12/13 04:24:06;;;;;;;13.50;6.93;;;;;;;6.61;74.09;98882.66;5115026;28;20262;-85
2023/12/13 04:26:33;;;;;;;13.20;5.97;;;;;;;6.78;73.11;98878.47;5114826;28;20179;-84
2023/12/13 04:29:00;;;;;;;14.03;6.57;;;;;;;6.80;72.27;98875.81;5114912;28;20239;-84
2023/12/13 04:31:26;;;;;;;14.07;6.63;;;;;;;6.82;72.78;98880.03;5115067;28;20215;-84
2023/12/13 04:33:53;;;;;;;13.53;6.33;;;;;;;6.86;72.61;98865.13;5096564;28;20207;-85
2023/12/13 04:36:20;;;;;;;15.97;7.00;;;;;;;6.84;71.89;98853.09;5115025;28;20251;-84
2023/12/13 04:38:45;;;;;;;12.57;5.83;;;;;;;6.78;71.88;98851.59;5096608;28;20176;-85
2023/12/13 04:41:12;;;;;;;15.43;7.00;;;;;;;6.84;71.79;98863.50;5096667;28;20194;-85
2023/12/13 04:43:39;;;;;;;11.23;5.73;;;;;;;6.88;71.48;98873.72;5109955;28;20188;-84
2023/12/13 04:46:06;;;;;;;12.13;5.50;;;;;;;6.90;70.85;98873.66;5089238;28;20179;-85
2023/12/13 04:48:31;;;;;;;11.73;6.07;;;;;;;6.90;70.45;98871.91;5114490;28;20209;-85
2023/12/13 04:50:57;;;;;;;9.63;5.90;;;;;;;6.88;70.67;98870.28;5114289;28;20239;-84
2023/12/13 04:53:24;;;;;;;18.47;5.90;;;;;;;6.86;70.02;98872.94;5096473;28;20535;-84
2023/12/13 04:55:49;;;;;;;18.70;7.10;;;;;;;6.94;70.75;98872.63;5114720;28;20184;-84
2023/12/13 04:58:16;;;;;;;14.37;7.50;;;;;;;6.96;70.43;98863.84;5114630;28;20679;-85
2023/12/13 05:00:42;;;;;;;19.17;6.87;;;;;;;6.94;70.15;98862.22;5114189;28;20184;-84
2023/12/13 05:03:07;;;;;;;26.00;11.50;;;;;;;6.99;69.92;98870.66;5114053;28;20190;-85
2023/12/13 05:05:33;;;;;;;18.03;7.87;;;;;;;7.02;69.77;98860.13;5114071;28;20184;-85
2023/12/13 05:07:58;;;;;;;13.40;6.90;;;;;;;6.99;69.58;98862.84;5093307;28;20207;-85
2023/12/13 05:10:24;;;;;;;23.27;9.93;;;;;;;6.97;69.72;98862.91;5112820;28;20589;-85
2023/12/13 05:12:49;;;;;;;35.33;16.77;;;;;;;6.99;69.22;98881.09;5112114;28;20188;-85
2023/12/13 05:15:16;;;;;;;41.40;17.80;;;;;;;6.98;69.25;98895.88;5094775;28;20187;-85
2023/12/13 05:17:43;;;;;;;26.43;10.57;;;;;;;6.97;69.55;98908.97;5113835;28;20233;-85
2023/12/13 05:20:11;;;;;;;13.53;6.87;;;;;;;6.97;68.78;98917.63;5094653;28;20171;-85
2023/12/13 05:22:37;;;;;;;15.27;7.23;;;;;;;6.91;68.26;98909.22;5096113;28;20285;-85
2023/12/13 05:25:03;;;;;;;19.10;9.87;;;;;;;6.80;68.01;98905.31;5095946;28;20258;-85
2023/12/13 05:27:30;;;;;;;21.97;10.83;;;;;;;6.76;68.52;98885.50;5095791;28;20321;-85
2023/12/13 05:29:55;;;;;;;20.13;10.73;;;;;;;6.75;68.02;98886.41;5111655;28;20191;-85
2023/12/13 05:32:22;;;;;;;18.93;10.47;;;;;;;6.76;68.39;98887.28;5096275;28;20603;-85
2023/12/13 05:34:49;;;;;;;22.37;10.83;;;;;;;6.88;67.34;98878.09;5114063;28;20176;-85
2023/12/13 05:37:16;;;;;;;19.47;9.73;;;;;;;6.93;67.88;98871.78;5095572;28;20714;-85
2023/12/13 05:39:42;;;;;;;16.60;7.50;;;;;;;6.84;67.76;98861.72;5113918;28;20528;-85
2023/12/13 05:42:08;;;;;;;17.07;8.33;;;;;;;6.67;67.74;98854.63;5113631;28;20175;-85
2023/12/13 05:44:35;;;;;;;17.10;7.47;;;;;;;6.66;67.67;98857.28;5113883;28;20187;-85
2023/12/13 05:47:00;;;;;;;12.37;7.83;;;;;;;6.69;67.76;98847.59;5096029;28;20175;-85
2023/12/13 05:49:26;;;;;;;14.63;6.57;;;;;;;6.77;68.38;98842.91;5113209;28;20681;-85
2023/12/13 05:51:53;;;;;;;18.77;8.23;;;;;;;6.78;68.22;98849.84;5113467;28;20175;-85
2023/12/13 05:54:19;;;;;;;21.30;7.93;;;;;;;6.79;68.16;98854.13;5095642;28;20194;-85
2023/12/13 05:56:47;;;;;;;18.07;8.27;;;;;;;6.87;67.91;98869.41;5113574;28;20535;-85
2023/12/13 05:59:14;;;;;;;16.00;8.17;;;;;;;6.92;67.14;98879.66;5114263;28;20308;-85
2023/12/13 06:01:41;;;;;;;16.50;7.70;;;;;;;6.88;68.10;98872.88;5113765;28;20241;-85
2023/12/13 06:04:06;;;;;;;14.17;7.90;;;;;;;6.87;67.96;98865.97;5095512;28;20183;-85
2023/12/13 06:06:31;;;;;;;17.50;6.67;;;;;;;6.91;68.18;98880.56;5095447;28;20183;-85
2023/12/13 06:08:58;;;;;;;18.63;8.37;;;;;;;6.94;67.69;98877.84;5096738;28;20180;-85
2023/12/13 06:11:24;;;;;;;15.40;7.03;;;;;;;6.97;67.92;98877.72;5113232;28;20225;-85
2023/12/13 06:13:49;;;;;;;10.43;6.53;;;;;;;6.92;68.19;98875.28;5094149;28;20191;-85
2023/12/13 06:16:15;;;;;;;16.33;6.97;;;;;;;7.02;67.81;98871.41;5096663;28;20627;-85
2023/12/13 06:18:41;;;;;;;14.87;7.67;;;;;;;7.14;67.68;98864.81;5097012;28;20237;-85
2023/12/13 06:21:08;;;;;;;15.63;7.47;;;;;;;7.18;67.54;98867.19;5079510;28;20195;-85
2023/12/13 06:23:35;;;;;;;16.23;7.53;;;;;;;7.20;68.38;98861.94;5106663;28;20198;-85
2023/12/13 06:26:00;;;;;;;13.33;7.13;;;;;;;7.31;68.55;98863.16;5101879;28;20571;-85
2023/12/13 06:28:27;;;;;;;17.13;7.97;;;;;;;7.49;69.30;98873.69;5095369;28;20175;-85
2023/12/13 06:30:52;;;;;;;14.77;7.37;;;;;;;7.63;68.60;98864.34;5090284;28;20196;-86
2023/12/13 06:33:18;;;;;;;17.77;7.83;;;;;;;7.85;69.28;98859.84;5076311;28;20188;-85
2023/12/13 06:35:44;;;;;;;16.27;7.97;;;;;;;8.69;70.81;98837.56;5114083;28;20168;-85
2023/12/13 06:38:14;;;;;;;12.77;6.87;;;;;;;9.52;67.28;98820.16;5084994;28;20187;-85
2023/12/13 06:40:40;;;;;;;25.50;11.27;;;;;;;9.67;64.39;98819.34;5082306;28;20264;-85
2023/12/13 06:43:07;;;;;;;24.93;10.47;;;;;;;10.03;64.43;98822.56;5096161;28;20628;-85
2023/12/13 06:45:53;;;;;;;18.17;9.63;;;;;;;10.41;62.37;98813.44;5095071;28;20175;-85
2023/12/13 06:51:09;;;;;;;115.93;34.30;;;;;;;10.97;59.04;98797.03;5095268;28;20200;-89
2023/12/13 06:53:38;;;;;;;53.10;22.20;;;;;;;10.89;58.17;98816.78;5077350;28;20190;-90
2023/12/13 06:56:05;;;;;;;41.83;20.13;;;;;;;10.64;58.98;98822.59;5095491;28;20180;-90
2023/12/13 06:58:34;;;;;;;36.53;18.23;;;;;;;10.48;59.32;98834.91;5095762;28;20211;-90
2023/12/13 07:01:01;;;;;;;42.33;17.53;;;;;;;10.49;59.64;98837.44;5068089;28;20181;-89
2023/12/13 07:03:27;;;;;;;28.13;14.73;;;;;;;10.48;60.03;98829.66;5058444;28;20188;-90
2023/12/13 07:05:54;;;;;;;28.00;14.20;;;;;;;10.61;59.99;98820.16;5086402;28;20257;-89
2023/12/13 07:08:20;;;;;;;33.13;15.90;;;;;;;10.58;59.40;98814.25;5078395;28;20226;-89
2023/12/13 07:10:45;;;;;;;30.97;16.33;;;;;;;10.47;59.35;98822.72;5096193;28;20208;-89
2023/12/13 07:13:11;;;;;;;32.13;17.23;;;;;;;10.21;60.24;98811.09;5096317;28;20252;-89
2023/12/13 07:15:37;;;;;;;36.67;18.40;;;;;;;10.17;60.60;98822.66;5096686;28;20279;-89
2023/12/13 07:18:03;;;;;;;60.33;35.47;;;;;;;10.10;61.36;98823.91;5095744;28;20211;-89
2023/12/13 07:20:30;;;;;;;33.63;18.03;;;;;;;10.03;61.78;98821.72;5089529;28;20180;-89
2023/12/13 07:22:57;;;;;;;37.83;20.37;;;;;;;9.98;61.83;98818.53;5078436;28;20549;-89
2023/12/13 07:25:22;;;;;;;48.43;25.37;;;;;;;9.88;62.09;98823.38;5096009;28;20183;-90
2023/12/13 07:27:48;;;;;;;39.13;22.13;;;;;;;9.82;62.20;98821.13;5094670;28;20184;-89
2023/12/13 07:30:14;;;;;;;43.00;23.20;;;;;;;9.80;62.62;98830.84;5077930;28;20241;-90
2023/12/13 07:32:42;;;;;;;37.83;21.13;;;;;;;9.79;62.87;98822.16;5077919;28;20178;-89
2023/12/13 07:35:09;;;;;;;42.47;22.47;;;;;;;9.78;62.98;98827.44;5095936;28;20191;-90
2023/12/13 07:37:35;;;;;;;52.87;23.60;;;;;;;9.85;63.14;98816.56;5095844;28;20186;-90
2023/12/13 07:40:03;;;;;;;51.80;23.20;;;;;;;9.87;63.42;98834.81;5077912;28;20176;-90
2023/12/13 07:42:31;;;;;;;56.00;25.73;;;;;;;9.85;63.29;98810.50;5095592;28;20190;-89
2023/12/13 07:44:58;;;;;;;57.37;24.93;;;;;;;9.83;63.50;98815.81;5095302;28;20196;-89
2023/12/13 07:47:25;;;;;;;42.47;22.03;;;;;;;9.88;63.21;98813.78;5094557;28;20176;-90
2023/12/13 07:49:53;;;;;;;48.97;23.90;;;;;;;9.95;63.40;98810.81;5077874;28;20203;-89
2023/12/13 07:52:19;;;;;;;51.77;23.83;;;;;;;9.97;62.61;98795.88;5077725;28;20184;-90
2023/12/13 07:54:48;;;;;;;43.23;22.47;;;;;;;10.01;62.79;98797.41;5077613;28;20191;-91
2023/12/13 07:57:15;;;;;;;49.53;22.70;;;;;;;10.02;63.30;98799.94;5096155;28;20211;-90
2023/12/13 07:59:42;;;;;;;59.70;22.03;;;;;;;10.11;63.82;98788.94;5077708;28;20179;-90
2023/12/13 08:02:09;;;;;;;36.53;19.17;;;;;;;10.25;64.21;98783.78;5077663;28;20183;-91
2023/12/13 08:04:36;;;;;;;38.70;17.70;;;;;;;10.21;63.34;98774.44;5109627;28;20191;-90
2023/12/13 08:07:02;;;;;;;27.80;14.97;;;;;;;10.26;62.83;98782.03;5090878;28;20184;-90
2023/12/13 08:09:30;;;;;;;24.33;11.43;;;;;;;10.25;63.28;98770.69;5094438;28;20180;-90
2023/12/13 08:11:55;;;;;;;25.90;12.00;;;;;;;10.33;63.67;98773.72;5078244;28;20696;-90
2023/12/13 08:14:21;;;;;;;21.80;11.10;;;;;;;10.25;62.26;98770.69;5101633;28;20252;-91
2023/12/13 08:16:48;;;;;;;23.47;11.97;;;;;;;10.43;62.76;98771.41;5084204;28;20188;-90
2023/12/13 08:19:14;;;;;;;33.40;10.00;;;;;;;10.65;63.41;98777.09;5077315;28;20250;-91
2023/12/13 08:21:41;;;;;;;19.33;10.87;;;;;;;10.83;62.72;98772.56;5077762;28;20263;-90
2023/12/13 08:24:10;;;;;;;24.43;10.83;;;;;;;10.93;61.24;98760.56;5077070;28;20185;-91
2023/12/13 08:26:36;;;;;;;20.17;10.23;;;;;;;10.97;60.19;98765.56;5076828;28;20280;-90
2023/12/13 08:29:03;;;;;;;18.40;9.77;;;;;;;10.97;59.43;98762.09;5077335;28;20590;-90
2023/12/13 08:31:31;;;;;;;22.37;10.00;;;;;;;11.12;59.62;98742.81;5077280;28;20200;-90
2023/12/13 08:33:57;;;;;;;26.47;13.03;;;;;;;11.17;59.28;98743.38;5077106;28;20181;-90
2023/12/13 08:36:25;;;;;;;24.50;10.77;;;;;;;11.23;60.82;98735.13;5077249;28;20276;-91
2023/12/13 08:38:51;;;;;;;24.63;12.23;;;;;;;11.44;60.15;98736.44;5080469;28;20175;-91
2023/12/13 08:41:17;;;;;;;26.70;12.93;;;;;;;11.66;60.49;98733.31;5115166;28;20542;-91
2023/12/13 08:43:44;;;;;;;23.87;10.37;;;;;;;11.54;59.92;98727.03;5114813;28;20177;-90
2023/12/13 08:46:11;;;;;;;22.87;11.27;;;;;;;11.49;60.75;98720.38;5107756;28;20191;-91
2023/12/13 08:48:37;;;;;;;20.30;10.67;;;;;;;11.85;59.26;98709.34;5095092;28;20204;-90
2023/12/13 08:51:04;;;;;;;16.53;9.27;;;;;;;11.94;59.61;98714.03;5094481;28;20198;-90
2023/12/13 08:53:30;;;;;;;14.63;8.67;;;;;;;12.15;58.87;98715.25;5094205;28;20187;-90
2023/12/13 08:55:57;;;;;;;14.73;7.97;;;;;;;12.29;58.11;98713.38;5076180;28;20184;-90
2023/12/13 08:58:23;;;;;;;16.37;8.77;;;;;;;12.36;58.68;98732.22;5076377;28;20185;-90
2023/12/13 09:00:48;;;;;;;14.47;7.30;;;;;;;12.37;58.59;98719.94;5081310;28;20180;-93
2023/12/13 09:03:15;;;;;;;9.37;5.93;;;;;;;12.27;59.09;98717.06;5114560;28;20186;-91
2023/12/13 09:05:40;;;;;;;8.63;4.57;;;;;;;12.35;58.69;98704.25;5092512;28;20260;-91
2023/12/13 09:08:08;;;;;;;10.23;5.80;;;;;;;12.45;58.57;98694.81;5094408;28;20699;-90
2023/12/13 09:10:34;;;;;;;8.00;4.77;;;;;;;12.42;58.59;98681.06;5094062;28;20207;-90
2023/12/13 09:13:04;;;;;;;10.47;5.07;;;;;;;12.43;58.75;98678.31;5076219;28;20543;-91
2023/12/13 09:15:31;;;;;;;9.90;5.60;;;;;;;12.47;58.94;98673.69;5104238;28;20196;-90
2023/12/13 09:17:59;;;;;;;10.47;5.60;;;;;;;12.63;57.99;98669.09;5093137;28;20199;-90
2023/12/13 09:20:26;;;;;;;15.63;7.17;;;;;;;12.62;58.92;98655.09;5093076;28;20251;-91
2023/12/13 09:22:52;;;;;;;13.47;7.07;;;;;;;12.69;59.04;98647.59;5093950;28;20711;-92
2023/12/13 09:25:19;;;;;;;15.17;6.47;;;;;;;12.89;58.29;98629.50;5092924;28;20199;-90
2023/12/13 09:27:48;;;;;;;14.93;6.93;;;;;;;13.04;58.30;98647.81;5093801;28;20670;-92
2023/12/13 09:30:16;;;;;;;11.93;6.47;;;;;;;12.85;57.38;98653.50;5093755;28;20687;-91
2023/12/13 09:32:42;;;;;;;11.70;6.03;;;;;;;12.76;57.47;98670.75;5092975;28;20181;-90
2023/12/13 09:35:08;;;;;;;16.07;7.07;;;;;;;12.71;57.78;98672.84;5093593;28;20194;-91
2023/12/13 09:37:34;;;;;;;14.87;7.23;;;;;;;13.00;57.00;98655.06;5091624;28;20634;-91
2023/12/13 09:40:02;;;;;;;11.03;5.40;;;;;;;13.17;57.32;98653.91;5108254;28;20221;-91
2023/12/13 09:42:29;;;;;;;10.07;5.23;;;;;;;12.97;57.06;98644.75;5093682;28;20213;-91
2023/12/13 09:44:59;;;;;;;13.23;4.90;;;;;;;12.93;57.76;98641.50;5092785;28;20179;-91
2023/12/13 09:47:27;;;;;;;12.03;5.00;;;;;;;12.99;57.83;98634.13;5093649;28;20633;-91
2023/12/13 09:49:53;;;;;;;10.60;4.47;;;;;;;13.05;58.21;98636.34;5074495;28;20272;-91
2023/12/13 09:52:20;;;;;;;16.57;5.63;;;;;;;12.76;59.27;98633.94;5092724;28;20193;-91
2023/12/13 09:54:50;;;;;;;10.37;4.80;;;;;;;12.60;60.12;98637.75;5092835;28;20183;-92
2023/12/13 09:57:15;;;;;;;11.30;6.00;;;;;;;12.39;61.03;98634.78;5093499;28;20179;-91
2023/12/13 09:59:41;;;;;;;13.40;5.97;;;;;;;12.34;61.35;98634.25;5092502;28;20177;-90
2023/12/13 10:02:12;;;;;;;14.40;6.07;;;;;;;12.39;61.55;98628.69;5109549;28;20188;-92
2023/12/13 10:04:38;;;;;;;11.60;5.63;;;;;;;12.31;61.53;98631.84;5092411;28;20184;-91
2023/12/13 10:07:08;;;;;;;13.30;6.47;;;;;;;12.17;62.05;98632.75;5092432;28;20185;-91
2023/12/13 10:09:34;;;;;;;10.07;5.53;;;;;;;12.06;62.61;98622.13;5096665;28;20271;-90
2023/12/13 10:12:00;;;;;;;12.43;5.97;;;;;;;12.12;62.40;98619.09;5097477;28;20287;-91
2023/12/13 10:14:26;;;;;;;10.23;5.63;;;;;;;12.16;62.18;98625.81;5096369;28;20256;-91
2023/12/13 10:16:52;;;;;;;16.57;6.87;;;;;;;12.23;62.24;98621.00;5097502;28;20664;-91
2023/12/13 10:19:19;;;;;;;16.77;6.47;;;;;;;12.46;61.82;98616.81;5096600;28;20188;-91
2023/12/13 10:21:48;;;;;;;14.03;6.47;;;;;;;12.64;62.51;98592.72;5095729;28;20199;-91
2023/12/13 10:24:15;;;;;;;15.73;7.37;;;;;;;12.85;62.06;98593.84;5095632;28;20228;-92
2023/12/13 10:26:42;;;;;;;19.33;8.67;;;;;;;12.81;61.08;98600.25;5094849;28;20189;-90
2023/12/13 10:29:09;;;;;;;18.27;7.60;;;;;;;12.82;61.02;98601.94;5096361;28;20260;-92
2023/12/13 10:31:35;;;;;;;14.40;7.43;;;;;;;12.99;61.14;98592.88;5094553;28;20208;-92
2023/12/13 10:34:01;;;;;;;14.03;6.70;;;;;;;13.16;60.41;98583.81;5095199;28;20184;-92
2023/12/13 10:36:29;;;;;;;14.30;7.80;;;;;;;13.37;60.75;98577.84;5095264;28;20659;-91
2023/12/13 10:38:56;;;;;;;14.37;6.17;;;;;;;13.36;60.02;98576.16;5096030;28;20243;-92
2023/12/13 10:41:26;;;;;;;14.20;7.67;;;;;;;13.42;59.68;98574.88;5096261;28;20249;-91
2023/12/13 10:43:58;;;;;;;13.90;7.07;;;;;;;13.35;58.58;98576.28;5097120;28;20276;-93
2023/12/13 10:46:33;;;;;;;12.80;7.17;;;;;;;13.39;59.63;98569.84;5096249;28;20181;-92
2023/12/13 10:48:59;;;;;;;14.53;7.53;;;;;;;13.48;59.59;98582.31;5096998;28;20295;-92
2023/12/13 10:51:28;;;;;;;12.73;7.23;;;;;;;13.64;58.76;98580.25;5095999;28;20204;-92
2023/12/13 10:53:56;;;;;;;16.80;7.27;;;;;;;13.73;58.57;98586.63;5096092;28;20269;-92
2023/12/13 10:56:23;;;;;;;13.73;7.07;;;;;;;13.72;58.13;98583.16;5095815;28;20564;-93
2023/12/13 10:58:54;;;;;;;15.50;7.17;;;;;;;13.40;58.07;98597.81;5096755;28;20185;-91
2023/12/13 11:01:21;;;;;;;11.83;7.10;;;;;;;13.22;59.36;98599.16;5095944;28;20181;-91
2023/12/13 11:03:58;;;;;;;15.33;7.70;;;;;;;13.20;59.49;98601.06;5096225;28;20215;-92
2023/12/13 11:06:26;;;;;;;16.13;7.23;;;;;;;13.20;59.93;98577.38;5095803;28;20596;-91
2023/12/13 11:08:52;;;;;;;13.43;7.13;;;;;;;12.96;60.80;98572.06;5095677;28;20186;-91
2023/12/13 11:11:26;;;;;;;13.83;7.23;;;;;;;13.38;59.84;98576.06;5095574;28;20218;-91
2023/12/13 11:13:53;;;;;;;14.73;7.23;;;;;;;13.34;60.21;98588.59;5095883;28;20180;-91
2023/12/13 11:16:24;;;;;;;17.50;8.03;;;;;;;12.97;61.32;98583.41;5115874;28;20518;-91
2023/12/13 11:18:57;;;;;;;16.83;7.73;;;;;;;12.90;61.69;98588.25;5097227;28;20263;-92
2023/12/13 11:21:31;;;;;;;16.90;8.30;;;;;;;12.68;61.64;98578.41;5097860;28;20187;-91
2023/12/13 11:24:15;;;;;;;16.97;8.70;;;;;;;12.78;61.34;98573.34;5111733;28;20642;-91
2023/12/13 11:26:48;;;;;;;19.97;8.77;;;;;;;12.14;62.88;98558.56;5115776;28;20599;-90
2023/12/13 11:29:21;;;;;;;22.40;9.73;;;;;;;12.25;63.22;98545.53;5097392;28;20274;-92